TimeEST,TemperatureF,Dew PointF,Humidity,Sea Level PressureIn,VisibilityMPH,Wind Direction,Wind SpeedMPH,Gust SpeedMPH,PrecipitationIn,Events,Conditions,WindDirDegrees,DateUTC
12:53 AM,37.0,30.0,76,30.25,10.0,Calm,Calm,-,N/A,,Partly Cloudy,0,2012-11-15 05:53:00
1:53 AM,34.0,28.0,79,30.25,10.0,Calm,Calm,-,N/A,,Clear,0,2012-11-15 06:53:00
2:53 AM,33.1,28.0,82,30.25,10.0,NNE,3.5,-,N/A,,Scattered Clouds,20,2012-11-15 07:53:00
3:53 AM,33.1,28.0,82,30.26,10.0,Calm,Calm,-,N/A,,Scattered Clouds,0,2012-11-15 08:53:00
4:53 AM,33.1,28.0,82,30.27,10.0,Calm,Calm,-,N/A,,Scattered Clouds,0,2012-11-15 09:53:00
5:53 AM,30.9,27.0,85,30.27,10.0,Calm,Calm,-,N/A,,Scattered Clouds,0,2012-11-15 10:53:00
6:53 AM,30.9,27.0,85,30.29,10.0,Calm,Calm,-,N/A,,Scattered Clouds,0,2012-11-15 11:53:00
7:53 AM,34.0,28.0,79,30.30,10.0,Calm,Calm,-,N/A,,Mostly Cloudy,0,2012-11-15 12:53:00
8:53 AM,36.0,28.9,76,30.31,10.0,East,4.6,-,N/A,,Mostly Cloudy,80,2012-11-15 13:53:00
9:53 AM,39.9,30.9,70,30.32,10.0,ENE,5.8,-,N/A,,Scattered Clouds,70,2012-11-15 14:53:00
10:53 AM,44.1,30.0,58,30.31,10.0,Calm,Calm,-,N/A,,Scattered Clouds,0,2012-11-15 15:53:00
11:53 AM,48.0,30.9,52,30.28,10.0,Calm,Calm,-,N/A,,Scattered Clouds,0,2012-11-15 16:53:00
12:53 PM,51.1,33.1,50,30.26,10.0,Variable,3.5,-,N/A,,Scattered Clouds,0,2012-11-15 17:53:00
1:53 PM,53.1,30.9,43,30.23,10.0,Calm,Calm,-,N/A,,Scattered Clouds,0,2012-11-15 18:53:00
2:53 PM,55.0,32.0,42,30.21,10.0,Calm,Calm,-,N/A,,Scattered Clouds,0,2012-11-15 19:53:00
3:53 PM,55.0,30.9,40,30.21,10.0,Calm,Calm,-,N/A,,Scattered Clouds,0,2012-11-15 20:53:00
4:53 PM,52.0,32.0,47,30.21,10.0,South,3.5,-,N/A,,Scattered Clouds,190,2012-11-15 21:53:00
5:53 PM,46.9,32.0,56,30.23,10.0,Calm,Calm,-,N/A,,Partly Cloudy,0,2012-11-15 22:53:00
6:53 PM,39.9,30.9,70,30.25,10.0,Calm,Calm,-,N/A,,Clear,0,2012-11-15 23:53:00
7:53 PM,37.0,30.9,79,30.26,10.0,Calm,Calm,-,N/A,,Clear,0,2012-11-16 00:53:00
8:53 PM,36.0,30.9,82,30.27,10.0,Calm,Calm,-,N/A,,Clear,0,2012-11-16 01:53:00
9:53 PM,36.0,30.9,82,30.27,10.0,Calm,Calm,-,N/A,,Clear,0,2012-11-16 02:53:00
10:53 PM,33.1,30.0,89,30.27,10.0,Calm,Calm,-,N/A,,Clear,0,2012-11-16 03:53:00
11:53 PM,32.0,28.9,88,30.27,10.0,Calm,Calm,-,N/A,,Clear,0,2012-11-16 04:53:00